sensor_id;sensor_type;location;lat;lon;timestamp;pressure;altitude;pressure_sealevel;temperature;humidity
75418;BME280;63997;52.112;5.420;2023-05-07T00:02:16;101764.34;;;14.37;89.53
75418;BME280;63997;52.112;5.420;2023-05-07T00:04:42;101765.31;;;14.32;89.39
75418;BME280;63997;52.112;5.420;2023-05-07T00:07:10;101770.84;;;14.27;89.15
75418;BME280;63997;52.112;5.420;2023-05-07T00:09:36;101774.47;;;14.22;89.12
75418;BME280;63997;52.112;5.420;2023-05-07T00:12:03;101772.13;;;14.21;89.41
75418;BME280;63997;52.112;5.420;2023-05-07T00:14:30;101775.44;;;14.18;89.27
75418;BME280;63997;52.112;5.420;2023-05-07T00:16:57;101774.97;;;14.16;89.22
75418;BME280;63997;52.112;5.420;2023-05-07T00:19:23;101768.84;;;14.15;89.59
75418;BME280;63997;52.112;5.420;2023-05-07T00:21:50;101768.69;;;14.12;89.33
75418;BME280;63997;52.112;5.420;2023-05-07T00:24:16;101768.41;;;14.05;89.70
75418;BME280;63997;52.112;5.420;2023-05-07T00:26:44;101767.47;;;14.00;89.54
75418;BME280;63997;52.112;5.420;2023-05-07T00:29:10;101769.97;;;13.97;89.38
75418;BME280;63997;52.112;5.420;2023-05-07T00:31:36;101758.50;;;13.96;89.47
75418;BME280;63997;52.112;5.420;2023-05-07T00:34:03;101760.38;;;13.96;89.51
75418;BME280;63997;52.112;5.420;2023-05-07T00:36:29;101759.59;;;13.95;89.47
75418;BME280;63997;52.112;5.420;2023-05-07T00:38:59;101752.69;;;13.94;89.78
75418;BME280;63997;52.112;5.420;2023-05-07T00:41:26;101747.00;;;13.96;89.90
75418;BME280;63997;52.112;5.420;2023-05-07T00:43:52;101748.91;;;13.95;89.67
75418;BME280;63997;52.112;5.420;2023-05-07T00:46:20;101747.34;;;13.94;89.74
75418;BME280;63997;52.112;5.420;2023-05-07T00:48:47;101742.00;;;13.94;89.80
75418;BME280;63997;52.112;5.420;2023-05-07T00:51:14;101739.00;;;13.96;89.92
75418;BME280;63997;52.112;5.420;2023-05-07T00:53:41;101738.69;;;13.97;89.78
75418;BME280;63997;52.112;5.420;2023-05-07T00:56:08;101736.03;;;13.97;89.76
75418;BME280;63997;52.112;5.420;2023-05-07T00:58:34;101740.88;;;13.95;89.46
75418;BME280;63997;52.112;5.420;2023-05-07T01:01:01;101736.66;;;13.94;89.78
75418;BME280;63997;52.112;5.420;2023-05-07T01:03:28;101739.66;;;13.93;89.78
75418;BME280;63997;52.112;5.420;2023-05-07T01:05:56;101738.09;;;13.92;89.86
75418;BME280;63997;52.112;5.420;2023-05-07T01:08:24;101738.88;;;13.92;90.19
75418;BME280;63997;52.112;5.420;2023-05-07T01:10:52;101734.31;;;13.93;90.11
75418;BME280;63997;52.112;5.420;2023-05-07T01:13:19;101734.31;;;13.93;89.73
75418;BME280;63997;52.112;5.420;2023-05-07T01:15:46;101735.41;;;13.92;89.67
75418;BME280;63997;52.112;5.420;2023-05-07T01:18:13;101732.56;;;13.88;89.56
75418;BME280;63997;52.112;5.420;2023-05-07T01:20:40;101736.53;;;13.82;89.27
75418;BME280;63997;52.112;5.420;2023-05-07T01:23:07;101740.31;;;13.81;89.40
75418;BME280;63997;52.112;5.420;2023-05-07T01:25:35;101736.84;;;13.81;88.99
75418;BME280;63997;52.112;5.420;2023-05-07T01:28:01;101736.03;;;13.80;89.34
75418;BME280;63997;52.112;5.420;2023-05-07T01:30:29;101733.38;;;13.80;89.31
75418;BME280;63997;52.112;5.420;2023-05-07T01:33:04;101739.03;;;13.79;89.47
75418;BME280;63997;52.112;5.420;2023-05-07T01:35:37;101738.25;;;13.78;89.63
75418;BME280;63997;52.112;5.420;2023-05-07T01:38:05;101738.25;;;13.78;89.80
75418;BME280;63997;52.112;5.420;2023-05-07T01:40:33;101742.81;;;13.77;89.61
75418;BME280;63997;52.112;5.420;2023-05-07T01:43:02;101735.59;;;13.78;89.47
75418;BME280;63997;52.112;5.420;2023-05-07T01:45:30;101739.03;;;13.79;89.80
75418;BME280;63997;52.112;5.420;2023-05-07T01:47:58;101741.72;;;13.79;89.82
75418;BME280;63997;52.112;5.420;2023-05-07T01:50:25;101745.03;;;13.75;89.92
75418;BME280;63997;52.112;5.420;2023-05-07T01:52:52;101739.53;;;13.72;89.46
75418;BME280;63997;52.112;5.420;2023-05-07T01:55:18;101743.31;;;13.71;89.91
75418;BME280;63997;52.112;5.420;2023-05-07T01:57:45;101731.84;;;13.70;89.87
75418;BME280;63997;52.112;5.420;2023-05-07T02:00:12;101734.19;;;13.72;90.25
75418;BME280;63997;52.112;5.420;2023-05-07T02:02:38;101737.97;;;13.71;90.31
75418;BME280;63997;52.112;5.420;2023-05-07T02:05:05;101738.59;;;13.68;90.27
75418;BME280;63997;52.112;5.420;2023-05-07T02:07:32;101740.34;;;13.64;90.50
75418;BME280;63997;52.112;5.420;2023-05-07T02:09:58;101739.53;;;13.63;90.56
75418;BME280;63997;52.112;5.420;2023-05-07T02:12:25;101746.78;;;13.63;90.37
75418;BME280;63997;52.112;5.420;2023-05-07T02:14:51;101738.28;;;13.61;90.58
75418;BME280;63997;52.112;5.420;2023-05-07T02:17:17;101740.19;;;13.60;90.75
75418;BME280;63997;52.112;5.420;2023-05-07T02:19:44;101743.03;;;13.64;90.91
75418;BME280;63997;52.112;5.420;2023-05-07T02:22:10;101736.25;;;13.66;90.79
75418;BME280;63997;52.112;5.420;2023-05-07T02:24:37;101732.47;;;13.67;90.68
75418;BME280;63997;52.112;5.420;2023-05-07T02:27:03;101734.81;;;13.69;90.64
75418;BME280;63997;52.112;5.420;2023-05-07T02:29:29;101742.81;;;13.69;90.90
75418;BME280;63997;52.112;5.420;2023-05-07T02:31:56;101734.81;;;13.69;90.53
75418;BME280;63997;52.112;5.420;2023-05-07T02:34:22;101739.84;;;13.70;90.54
75418;BME280;63997;52.112;5.420;2023-05-07T02:36:49;101737.47;;;13.69;90.72
75418;BME280;63997;52.112;5.420;2023-05-07T02:39:16;101738.28;;;13.69;90.61
75418;BME280;63997;52.112;5.420;2023-05-07T02:41:42;101732.63;;;13.71;91.01
75418;BME280;63997;52.112;5.420;2023-05-07T02:44:09;101726.94;;;13.72;91.12
75418;BME280;63997;52.112;5.420;2023-05-07T02:46:35;101728.84;;;13.72;91.27
75418;BME280;63997;52.112;5.420;2023-05-07T02:49:02;101731.50;;;13.72;91.48
75418;BME280;63997;52.112;5.420;2023-05-07T02:51:30;101724.72;;;13.74;91.60
75418;BME280;63997;52.112;5.420;2023-05-07T02:53:56;101725.22;;;13.76;91.38
75418;BME280;63997;52.112;5.420;2023-05-07T02:56:26;101728.69;;;13.77;91.45
75418;BME280;63997;52.112;5.420;2023-05-07T02:58:53;101733.25;;;13.76;91.46
75418;BME280;63997;52.112;5.420;2023-05-07T03:01:19;101740.47;;;13.76;91.35
75418;BME280;63997;52.112;5.420;2023-05-07T03:03:47;101728.50;;;13.73;91.50
75418;BME280;63997;52.112;5.420;2023-05-07T03:06:13;101740.00;;;13.74;91.46
75418;BME280;63997;52.112;5.420;2023-05-07T03:08:40;101733.56;;;13.75;91.19
75418;BME280;63997;52.112;5.420;2023-05-07T03:11:06;101727.09;;;13.76;91.42
75418;BME280;63997;52.112;5.420;2023-05-07T03:13:33;101732.47;;;13.76;91.08
75418;BME280;63997;52.112;5.420;2023-05-07T03:15:59;101731.34;;;13.77;91.33
75418;BME280;63997;52.112;5.420;2023-05-07T03:18:26;101716.09;;;13.77;91.32
75418;BME280;63997;52.112;5.420;2023-05-07T03:20:52;101731.34;;;13.77;91.25
75418;BME280;63997;52.112;5.420;2023-05-07T03:23:19;101720.38;;;13.70;91.12
75418;BME280;63997;52.112;5.420;2023-05-07T03:25:48;101726.78;;;13.69;91.26
75418;BME280;63997;52.112;5.420;2023-05-07T03:28:14;101727.28;;;13.71;91.22
75418;BME280;63997;52.112;5.420;2023-05-07T03:30:40;101725.72;;;13.70;90.82
75418;BME280;63997;52.112;5.420;2023-05-07T03:33:07;101733.72;;;13.70;90.84
75418;BME280;63997;52.112;5.420;2023-05-07T03:35:33;101731.06;;;13.70;90.83
75418;BME280;63997;52.112;5.420;2023-05-07T03:38:01;101726.00;;;13.68;91.16
75418;BME280;63997;52.112;5.420;2023-05-07T03:40:28;101727.91;;;13.68;90.89
75418;BME280;63997;52.112;5.420;2023-05-07T03:42:55;101722.72;;;13.63;90.79
75418;BME280;63997;52.112;5.420;2023-05-07T03:45:21;101723.81;;;13.62;90.63
75418;BME280;63997;52.112;5.420;2023-05-07T03:47:47;101740.50;;;13.59;90.79
75418;BME280;63997;52.112;5.420;2023-05-07T03:50:14;101734.22;;;13.55;90.91
75418;BME280;63997;52.112;5.420;2023-05-07T03:52:40;101734.22;;;13.55;90.79
75418;BME280;63997;52.112;5.420;2023-05-07T03:55:07;101730.28;;;13.52;90.84
75418;BME280;63997;52.112;5.420;2023-05-07T03:57:34;101730.16;;;13.48;90.92
75418;BME280;63997;52.112;5.420;2023-05-07T04:00:00;101735.00;;;13.46;90.95
75418;BME280;63997;52.112;5.420;2023-05-07T04:02:27;101738.31;;;13.43;91.16
75418;BME280;63997;52.112;5.420;2023-05-07T04:04:54;101733.75;;;13.44;91.15
75418;BME280;63997;52.112;5.420;2023-05-07T04:07:20;101737.53;;;13.43;91.30
75418;BME280;63997;52.112;5.420;2023-05-07T04:09:47;101741.78;;;13.44;91.07
75418;BME280;63997;52.112;5.420;2023-05-07T04:12:13;101741.78;;;13.44;91.25
75418;BME280;63997;52.112;5.420;2023-05-07T04:14:39;101739.88;;;13.44;91.33
75418;BME280;63997;52.112;5.420;2023-05-07T04:17:06;101744.13;;;13.45;91.37
75418;BME280;63997;52.112;5.420;2023-05-07T04:19:33;101746.19;;;13.48;91.52
75418;BME280;63997;52.112;5.420;2023-05-07T04:21:59;101747.75;;;13.49;91.72
75418;BME280;63997;52.112;5.420;2023-05-07T04:24:26;101746.31;;;13.52;91.53
75418;BME280;63997;52.112;5.420;2023-05-07T04:26:52;101751.03;;;13.55;91.52
75418;BME280;63997;52.112;5.420;2023-05-07T04:29:19;101742.69;;;13.57;91.42
75418;BME280;63997;52.112;5.420;2023-05-07T04:31:45;101746.94;;;13.58;91.56
75418;BME280;63997;52.112;5.420;2023-05-07T04:34:12;101747.41;;;13.60;91.73
75418;BME280;63997;52.112;5.420;2023-05-07T04:36:38;101744.44;;;13.61;91.92
75418;BME280;63997;52.112;5.420;2023-05-07T04:39:05;101751.81;;;13.64;91.53
75418;BME280;63997;52.112;5.420;2023-05-07T04:41:33;101742.38;;;13.67;91.33
75418;BME280;63997;52.112;5.420;2023-05-07T04:43:59;101743.94;;;13.68;91.52
75418;BME280;63997;52.112;5.420;2023-05-07T04:46:25;101748.66;;;13.71;91.69
75418;BME280;63997;52.112;5.420;2023-05-07T04:48:52;101748.66;;;13.71;91.65
75418;BME280;63997;52.112;5.420;2023-05-07T04:51:18;101755.25;;;13.73;91.65
75418;BME280;63997;52.112;5.420;2023-05-07T04:53:45;101752.56;;;13.73;91.27
75418;BME280;63997;52.112;5.420;2023-05-07T04:56:11;101754.13;;;13.74;91.37
75418;BME280;63997;52.112;5.420;2023-05-07T04:58:37;101763.44;;;13.77;91.34
75418;BME280;63997;52.112;5.420;2023-05-07T05:01:04;101762.66;;;13.76;91.59
75418;BME280;63997;52.112;5.420;2023-05-07T05:03:31;101758.88;;;13.77;91.63
75418;BME280;63997;52.112;5.420;2023-05-07T05:05:58;101762.00;;;13.80;91.57
75418;BME280;63997;52.112;5.420;2023-05-07T05:08:26;101763.25;;;13.82;91.49
75418;BME280;63997;52.112;5.420;2023-05-07T05:10:52;101769.06;;;13.84;91.37
75418;BME280;63997;52.112;5.420;2023-05-07T05:13:19;101761.53;;;13.86;91.58
75418;BME280;63997;52.112;5.420;2023-05-07T05:15:45;101765.78;;;13.87;91.83
75418;BME280;63997;52.112;5.420;2023-05-07T05:18:12;101765.78;;;13.87;91.68
75418;BME280;63997;52.112;5.420;2023-05-07T05:20:38;101770.00;;;13.88;91.51
75418;BME280;63997;52.112;5.420;2023-05-07T05:23:05;101770.00;;;13.88;91.79
75418;BME280;63997;52.112;5.420;2023-05-07T05:25:32;101767.81;;;13.90;91.25
75418;BME280;63997;52.112;5.420;2023-05-07T05:27:58;101769.38;;;13.91;91.28
75418;BME280;63997;52.112;5.420;2023-05-07T05:30:24;101775.19;;;13.93;91.43
75418;BME280;63997;52.112;5.420;2023-05-07T05:32:51;101778.31;;;13.95;91.23
75418;BME280;63997;52.112;5.420;2023-05-07T05:35:17;101778.00;;;13.97;91.44
75418;BME280;63997;52.112;5.420;2023-05-07T05:37:44;101779.28;;;13.99;91.07
75418;BME280;63997;52.112;5.420;2023-05-07T05:40:10;101783.50;;;14.00;91.37
75418;BME280;63997;52.112;5.420;2023-05-07T05:42:37;101782.09;;;14.03;91.13
75418;BME280;63997;52.112;5.420;2023-05-07T05:45:04;101790.59;;;14.05;91.24
75418;BME280;63997;52.112;5.420;2023-05-07T05:47:31;101791.38;;;14.06;91.55
75418;BME280;63997;52.112;5.420;2023-05-07T05:49:57;101799.22;;;14.11;91.48
75418;BME280;63997;52.112;5.420;2023-05-07T05:52:24;101798.28;;;14.15;91.33
75418;BME280;63997;52.112;5.420;2023-05-07T05:54:50;101808.03;;;14.20;91.11
75418;BME280;63997;52.112;5.420;2023-05-07T05:57:16;101805.03;;;14.21;91.29
75418;BME280;63997;52.112;5.420;2023-05-07T05:59:43;101802.78;;;14.23;90.95
75418;BME280;63997;52.112;5.420;2023-05-07T06:02:10;101810.50;;;14.25;90.93
75418;BME280;63997;52.112;5.420;2023-05-07T06:04:36;101802.94;;;14.27;90.95
75418;BME280;63997;52.112;5.420;2023-05-07T06:07:03;101810.31;;;14.30;91.11
75418;BME280;63997;52.112;5.420;2023-05-07T06:09:29;101815.38;;;14.32;91.00
75418;BME280;63997;52.112;5.420;2023-05-07T06:11:56;101818.84;;;14.32;91.12
75418;BME280;63997;52.112;5.420;2023-05-07T06:14:25;101818.84;;;14.32;90.84
75418;BME280;63997;52.112;5.420;2023-05-07T06:16:52;101818.84;;;14.32;90.89
75418;BME280;63997;52.112;5.420;2023-05-07T06:19:18;101826.88;;;14.32;91.00
75418;BME280;63997;52.112;5.420;2023-05-07T06:21:49;101818.50;;;14.34;91.02
75418;BME280;63997;52.112;5.420;2023-05-07T06:24:16;101821.63;;;14.36;90.80
75418;BME280;63997;52.112;5.420;2023-05-07T06:26:42;101820.22;;;14.38;90.94
75418;BME280;63997;52.112;5.420;2023-05-07T06:29:09;101813.78;;;14.39;90.89
75418;BME280;63997;52.112;5.420;2023-05-07T06:31:35;101819.56;;;14.41;90.99
75418;BME280;63997;52.112;5.420;2023-05-07T06:34:02;101824.94;;;14.41;91.11
75418;BME280;63997;52.112;5.420;2023-05-07T06:36:28;101818.00;;;14.40;91.34
75418;BME280;63997;52.112;5.420;2023-05-07T06:38:55;101822.56;;;14.40;91.41
75418;BME280;63997;52.112;5.420;2023-05-07T06:41:21;101819.56;;;14.41;91.89
75418;BME280;63997;52.112;5.420;2023-05-07T06:43:48;101828.09;;;14.43;91.99
75418;BME280;63997;52.112;5.420;2023-05-07T06:46:14;101817.53;;;14.47;91.67
75418;BME280;63997;52.112;5.420;2023-05-07T06:48:41;101824.16;;;14.49;91.79
75418;BME280;63997;52.112;5.420;2023-05-07T06:51:07;101816.13;;;14.49;91.60
75418;BME280;63997;52.112;5.420;2023-05-07T06:53:35;101823.50;;;14.52;91.97
75418;BME280;63997;52.112;5.420;2023-05-07T06:56:01;101817.97;;;14.58;91.78
75418;BME280;63997;52.112;5.420;2023-05-07T06:58:28;101822.81;;;14.64;91.95
75418;BME280;63997;52.112;5.420;2023-05-07T07:00:54;101820.56;;;14.75;91.94
75418;BME280;63997;52.112;5.420;2023-05-07T07:03:21;101828.22;;;14.85;91.77
75418;BME280;63997;52.112;5.420;2023-05-07T07:05:47;101828.50;;;14.92;91.28
75418;BME280;63997;52.112;5.420;2023-05-07T07:08:13;101824.56;;;14.98;91.58
75418;BME280;63997;52.112;5.420;2023-05-07T07:10:40;101824.31;;;15.12;91.34
75418;BME280;63997;52.112;5.420;2023-05-07T07:13:07;101820.91;;;15.24;91.26
75418;BME280;63997;52.112;5.420;2023-05-07T07:15:33;101824.25;;;15.42;90.77
75418;BME280;63997;52.112;5.420;2023-05-07T07:17:59;101826.09;;;15.50;90.14
75418;BME280;63997;52.112;5.420;2023-05-07T07:20:26;101823.97;;;15.55;90.25
75418;BME280;63997;52.112;5.420;2023-05-07T07:22:52;101815.63;;;16.35;90.22
75418;BME280;63997;52.112;5.420;2023-05-07T07:25:19;101820.38;;;16.75;87.10
75418;BME280;63997;52.112;5.420;2023-05-07T07:27:45;101817.31;;;16.52;86.31
75418;BME280;63997;52.112;5.420;2023-05-07T07:30:12;101818.19;;;16.44;86.48
75418;BME280;63997;52.112;5.420;2023-05-07T07:32:38;101819.00;;;16.45;85.70
75418;BME280;63997;52.112;5.420;2023-05-07T07:35:05;101815.31;;;16.61;86.05
75418;BME280;63997;52.112;5.420;2023-05-07T07:37:32;101817.56;;;16.84;85.73
75418;BME280;63997;52.112;5.420;2023-05-07T07:40:00;101825.06;;;16.90;84.85
75418;BME280;63997;52.112;5.420;2023-05-07T07:42:26;101824.38;;;16.93;84.86
75418;BME280;63997;52.112;5.420;2023-05-07T07:44:53;101828.72;;;17.10;84.05
75418;BME280;63997;52.112;5.420;2023-05-07T07:47:19;101831.94;;;17.56;82.40
75418;BME280;63997;52.112;5.420;2023-05-07T07:49:46;101830.53;;;17.87;81.15
75418;BME280;63997;52.112;5.420;2023-05-07T07:52:12;101833.91;;;17.71;80.88
75418;BME280;63997;52.112;5.420;2023-05-07T07:54:38;101839.66;;;17.70;82.02
75418;BME280;63997;52.112;5.420;2023-05-07T07:57:05;101837.88;;;17.62;82.03
75418;BME280;63997;52.112;5.420;2023-05-07T07:59:31;101837.63;;;17.67;82.19
75418;BME280;63997;52.112;5.420;2023-05-07T08:01:57;101837.75;;;17.70;81.43
75418;BME280;63997;52.112;5.420;2023-05-07T08:04:24;101839.78;;;17.74;80.53
75418;BME280;63997;52.112;5.420;2023-05-07T08:06:50;101843.75;;;17.52;80.56
75418;BME280;63997;52.112;5.420;2023-05-07T08:09:17;101851.28;;;17.46;80.98
75418;BME280;63997;52.112;5.420;2023-05-07T08:11:43;101847.59;;;17.38;81.75
75418;BME280;63997;52.112;5.420;2023-05-07T08:14:11;101845.72;;;17.27;81.87
75418;BME280;63997;52.112;5.420;2023-05-07T08:16:37;101845.28;;;17.25;81.56
75418;BME280;63997;52.112;5.420;2023-05-07T08:19:03;101855.56;;;17.23;82.52
75418;BME280;63997;52.112;5.420;2023-05-07T08:21:30;101854.25;;;17.16;81.92
75418;BME280;63997;52.112;5.420;2023-05-07T08:23:59;101848.22;;;17.07;82.26
75418;BME280;63997;52.112;5.420;2023-05-07T08:26:26;101856.53;;;17.02;82.10
75418;BME280;63997;52.112;5.420;2023-05-07T08:28:52;101849.47;;;16.98;82.01
75418;BME280;63997;52.112;5.420;2023-05-07T08:31:19;101853.94;;;16.93;83.26
75418;BME280;63997;52.112;5.420;2023-05-07T08:33:45;101855.28;;;16.87;83.05
75418;BME280;63997;52.112;5.420;2023-05-07T08:36:11;101865.69;;;16.77;83.67
75418;BME280;63997;52.112;5.420;2023-05-07T08:38:38;101861.00;;;16.74;84.55
75418;BME280;63997;52.112;5.420;2023-05-07T08:41:09;101857.06;;;16.71;84.68
75418;BME280;63997;52.112;5.420;2023-05-07T08:43:37;101847.00;;;16.68;85.07
75418;BME280;63997;52.112;5.420;2023-05-07T08:46:04;101848.44;;;16.65;84.79
75418;BME280;63997;52.112;5.420;2023-05-07T08:48:35;101852.22;;;16.64;85.20
75418;BME280;63997;52.112;5.420;2023-05-07T08:51:02;101852.81;;;16.70;85.13
75418;BME280;63997;52.112;5.420;2023-05-07T08:53:28;101853.13;;;16.69;85.24
75418;BME280;63997;52.112;5.420;2023-05-07T08:55:55;101855.94;;;16.72;86.24
75418;BME280;63997;52.112;5.420;2023-05-07T08:58:22;101866.16;;;16.79;86.15
75418;BME280;63997;52.112;5.420;2023-05-07T09:00:48;101867.16;;;16.74;85.71
75418;BME280;63997;52.112;5.420;2023-05-07T09:03:15;101863.69;;;16.74;86.02
75418;BME280;63997;52.112;5.420;2023-05-07T09:05:42;101862.91;;;16.73;86.23
75418;BME280;63997;52.112;5.420;2023-05-07T09:08:10;101854.06;;;16.73;86.03
75418;BME280;63997;52.112;5.420;2023-05-07T09:10:40;101856.06;;;16.76;86.79
75418;BME280;63997;52.112;5.420;2023-05-07T09:13:07;101853.38;;;16.76;86.24
75418;BME280;63997;52.112;5.420;2023-05-07T09:15:34;101854.94;;;16.77;86.62
75418;BME280;63997;52.112;5.420;2023-05-07T09:18:01;101852.72;;;16.79;86.39
75418;BME280;63997;52.112;5.420;2023-05-07T09:20:30;101847.44;;;16.82;86.17
75418;BME280;63997;52.112;5.420;2023-05-07T09:22:56;101856.41;;;16.86;85.93
75418;BME280;63997;52.112;5.420;2023-05-07T09:25:30;101865.13;;;16.83;84.95
75418;BME280;63997;52.112;5.420;2023-05-07T09:27:57;101862.91;;;16.85;86.06
75418;BME280;63997;52.112;5.420;2023-05-07T09:30:30;101864.59;;;16.90;85.57
75418;BME280;63997;52.112;5.420;2023-05-07T09:33:01;101863.00;;;16.89;84.98
75418;BME280;63997;52.112;5.420;2023-05-07T09:35:29;101859.31;;;16.93;85.70
75418;BME280;63997;52.112;5.420;2023-05-07T09:37:58;101862.56;;;16.99;84.90
75418;BME280;63997;52.112;5.420;2023-05-07T09:40:28;101855.81;;;17.05;84.90
75418;BME280;63997;52.112;5.420;2023-05-07T09:42:55;101854.47;;;17.11;85.24
75418;BME280;63997;52.112;5.420;2023-05-07T09:45:24;101860.75;;;17.15;84.56
75418;BME280;63997;52.112;5.420;2023-05-07T09:47:54;101854.38;;;17.20;84.99
75418;BME280;63997;52.112;5.420;2023-05-07T09:50:29;101864.09;;;17.25;84.88
75418;BME280;63997;52.112;5.420;2023-05-07T09:52:56;101858.94;;;17.32;85.58
75418;BME280;63997;52.112;5.420;2023-05-07T09:55:23;101866.75;;;17.37;85.06
75418;BME280;63997;52.112;5.420;2023-05-07T09:57:50;101865.97;;;17.36;84.01
75418;BME280;63997;52.112;5.420;2023-05-07T10:00:19;101870.03;;;17.30;83.98
75418;BME280;63997;52.112;5.420;2023-05-07T10:02:52;101869.34;;;17.33;85.13
75418;BME280;63997;52.112;5.420;2023-05-07T10:05:19;101869.22;;;17.42;85.14
75418;BME280;63997;52.112;5.420;2023-05-07T10:07:48;101868.75;;;17.52;84.69
75418;BME280;63997;52.112;5.420;2023-05-07T10:10:17;101872.97;;;17.65;84.62
75418;BME280;63997;52.112;5.420;2023-05-07T10:12:44;101874.97;;;17.81;83.64
75418;BME280;63997;52.112;5.420;2023-05-07T10:15:11;101881.75;;;17.90;83.82
75418;BME280;63997;52.112;5.420;2023-05-07T10:17:39;101877.78;;;18.00;83.71
75418;BME280;63997;52.112;5.420;2023-05-07T10:20:07;101879.97;;;18.10;82.99
75418;BME280;63997;52.112;5.420;2023-05-07T10:22:39;101876.59;;;18.13;82.19
75418;BME280;63997;52.112;5.420;2023-05-07T10:25:17;101873.31;;;18.20;82.04
75418;BME280;63997;52.112;5.420;2023-05-07T10:27:46;101874.38;;;18.31;81.24
75418;BME280;63997;52.112;5.420;2023-05-07T10:33:02;101874.13;;;18.52;81.57
75418;BME280;63997;52.112;5.420;2023-05-07T10:35:38;101872.47;;;18.63;80.43
75418;BME280;63997;52.112;5.420;2023-05-07T10:38:07;101866.75;;;18.81;79.98
75418;BME280;63997;52.112;5.420;2023-05-07T10:40:33;101877.94;;;18.98;80.65
75418;BME280;63997;52.112;5.420;2023-05-07T10:43:02;101868.94;;;19.10;78.66
75418;BME280;63997;52.112;5.420;2023-05-07T10:45:34;101871.53;;;19.22;78.62
75418;BME280;63997;52.112;5.420;2023-05-07T10:48:16;101867.63;;;19.39;77.60
75418;BME280;63997;52.112;5.420;2023-05-07T10:50:46;101868.72;;;19.54;76.07
75418;BME280;63997;52.112;5.420;2023-05-07T10:55:50;101878.69;;;19.89;75.97
75418;BME280;63997;52.112;5.420;2023-05-07T10:58:27;101874.09;;;20.12;75.67
75418;BME280;63997;52.112;5.420;2023-05-07T11:01:01;101874.66;;;20.21;73.29
75418;BME280;63997;52.112;5.420;2023-05-07T11:03:29;101874.66;;;20.21;72.66
75418;BME280;63997;52.112;5.420;2023-05-07T11:06:15;101873.97;;;20.05;72.93
75418;BME280;63997;52.112;5.420;2023-05-07T11:11:19;101870.28;;;19.94;74.21
75418;BME280;63997;52.112;5.420;2023-05-07T11:13:48;101872.69;;;19.99;73.57
75418;BME280;63997;52.112;5.420;2023-05-07T11:16:20;101873.13;;;20.01;73.98
75418;BME280;63997;52.112;5.420;2023-05-07T11:18:48;101868.94;;;20.03;73.38
75418;BME280;63997;52.112;5.420;2023-05-07T11:24:01;101881.81;;;20.14;73.67
75418;BME280;63997;52.112;5.420;2023-05-07T11:26:49;101879.75;;;20.26;73.86
75418;BME280;63997;52.112;5.420;2023-05-07T11:29:18;101880.56;;;20.30;72.40
75418;BME280;63997;52.112;5.420;2023-05-07T11:31:49;101883.91;;;20.43;73.22
75418;BME280;63997;52.112;5.420;2023-05-07T11:34:21;101880.06;;;20.44;72.25
75418;BME280;63997;52.112;5.420;2023-05-07T11:36:48;101879.81;;;20.53;71.84
75418;BME280;63997;52.112;5.420;2023-05-07T11:39:29;101869.78;;;20.76;72.00
75418;BME280;63997;52.112;5.420;2023-05-07T11:41:57;101873.25;;;21.03;70.64
75418;BME280;63997;52.112;5.420;2023-05-07T11:44:24;101880.66;;;21.06;70.53
75418;BME280;63997;52.112;5.420;2023-05-07T11:46:50;101871.84;;;21.13;70.16
75418;BME280;63997;52.112;5.420;2023-05-07T11:49:17;101880.28;;;21.08;70.30
75418;BME280;63997;52.112;5.420;2023-05-07T11:51:44;101880.59;;;21.03;70.18
75418;BME280;63997;52.112;5.420;2023-05-07T11:54:15;101876.16;;;20.91;70.17
75418;BME280;63997;52.112;5.420;2023-05-07T11:56:44;101883.41;;;20.83;70.70
75418;BME280;63997;52.112;5.420;2023-05-07T11:59:11;101877.72;;;20.92;71.41
75418;BME280;63997;52.112;5.420;2023-05-07T12:01:37;101878.16;;;20.94;72.23
75418;BME280;63997;52.112;5.420;2023-05-07T12:04:04;101886.84;;;21.07;71.47
75418;BME280;63997;52.112;5.420;2023-05-07T12:06:36;101883.38;;;21.10;71.13
75418;BME280;63997;52.112;5.420;2023-05-07T12:09:03;101876.31;;;21.28;72.39
75418;BME280;63997;52.112;5.420;2023-05-07T12:11:31;101875.09;;;21.52;70.27
75418;BME280;63997;52.112;5.420;2023-05-07T12:13:57;101879.78;;;21.92;71.04
75418;BME280;63997;52.112;5.420;2023-05-07T12:16:26;101879.25;;;22.13;67.68
75418;BME280;63997;52.112;5.420;2023-05-07T12:18:53;101873.38;;;22.08;68.35
75418;BME280;63997;52.112;5.420;2023-05-07T12:21:21;101872.88;;;22.36;66.15
75418;BME280;63997;52.112;5.420;2023-05-07T12:23:48;101874.00;;;22.31;66.55
75418;BME280;63997;52.112;5.420;2023-05-07T12:26:14;101881.50;;;22.08;66.94
75418;BME280;63997;52.112;5.420;2023-05-07T12:28:40;101878.94;;;22.22;67.32
75418;BME280;63997;52.112;5.420;2023-05-07T12:31:07;101880.19;;;22.32;67.51
75418;BME280;63997;52.112;5.420;2023-05-07T12:33:34;101882.44;;;22.23;67.76
75418;BME280;63997;52.112;5.420;2023-05-07T12:36:06;101875.59;;;22.36;66.92
75418;BME280;63997;52.112;5.420;2023-05-07T12:38:39;101879.25;;;22.61;65.65
75418;BME280;63997;52.112;5.420;2023-05-07T12:41:08;101872.06;;;22.80;64.38
75418;BME280;63997;52.112;5.420;2023-05-07T12:43:35;101872.97;;;22.98;64.53
75418;BME280;63997;52.112;5.420;2023-05-07T12:46:06;101866.81;;;23.12;62.53
75418;BME280;63997;52.112;5.420;2023-05-07T12:48:35;101870.34;;;23.12;63.02
75418;BME280;63997;52.112;5.420;2023-05-07T12:51:02;101875.38;;;23.14;62.16
75418;BME280;63997;52.112;5.420;2023-05-07T12:53:29;101877.66;;;23.01;60.88
75418;BME280;63997;52.112;5.420;2023-05-07T12:55:58;101880.75;;;23.03;62.32
75418;BME280;63997;52.112;5.420;2023-05-07T12:58:30;101881.53;;;23.04;62.04
75418;BME280;63997;52.112;5.420;2023-05-07T13:00:59;101887.28;;;22.95;62.40
75418;BME280;63997;52.112;5.420;2023-05-07T13:03:31;101882.88;;;22.76;61.63